createdAt,value
2019-05-13T00:00:57.727Z,1.23
2019-05-13T00:03:25.097Z,1.70
2019-05-13T00:05:53.617Z,1.40
2019-05-13T00:08:21.842Z,1.17
2019-05-13T00:10:50.164Z,1.20
2019-05-13T00:13:17.405Z,1.20
2019-05-13T00:15:45.561Z,1.50
2019-05-13T00:18:14.373Z,1.30
2019-05-13T00:20:44.278Z,1.40
2019-05-13T00:23:14.074Z,1.60
2019-05-13T00:25:40.422Z,1.40
2019-05-13T00:28:07.572Z,1.50
2019-05-13T00:30:35.120Z,1.33
2019-05-13T00:33:03.703Z,1.20
2019-05-13T00:35:30.746Z,1.43
2019-05-13T00:37:58.070Z,1.50
2019-05-13T00:40:25.427Z,1.80
2019-05-13T00:42:54.480Z,1.83
2019-05-13T00:45:24.520Z,1.67
2019-05-13T00:47:53.705Z,1.50
2019-05-13T00:50:24.125Z,1.60
2019-05-13T00:52:53.616Z,1.60
2019-05-13T00:55:20.868Z,1.57
2019-05-13T00:57:48.490Z,1.77
2019-05-13T01:00:16.136Z,2.00
2019-05-13T01:02:44.582Z,1.57
2019-05-13T01:05:11.755Z,1.23
2019-05-13T01:07:38.742Z,1.90
2019-05-13T01:10:05.896Z,1.80
2019-05-13T01:12:34.525Z,1.53
2019-05-13T01:15:03.931Z,1.97
2019-05-13T01:17:30.282Z,1.73
2019-05-13T01:19:57.508Z,1.80
2019-05-13T01:22:38.346Z,1.70
2019-05-13T01:25:07.286Z,2.00
2019-05-13T01:27:35.410Z,1.70
2019-05-13T01:30:04.137Z,1.80
2019-05-13T01:32:34.280Z,2.00
2019-05-13T01:35:04.419Z,1.90
2019-05-13T01:37:40.011Z,2.07
2019-05-13T01:42:50.927Z,2.10
2019-05-13T01:45:18.146Z,2.00
2019-05-13T01:47:45.121Z,1.90
2019-05-13T01:50:14.282Z,1.83
2019-05-13T01:52:44.489Z,2.23
2019-05-13T01:55:15.323Z,2.13
2019-05-13T01:57:44.409Z,2.03
2019-05-13T02:00:14.055Z,1.93
2019-05-13T02:02:41.241Z,2.10
2019-05-13T02:05:08.199Z,1.93
2019-05-13T02:07:36.400Z,2.10
2019-05-13T02:10:05.031Z,2.70
2019-05-13T02:12:33.872Z,1.97
2019-05-13T02:15:00.842Z,2.33
2019-05-13T02:17:27.945Z,2.20
2019-05-13T02:19:55.352Z,2.30
2019-05-13T02:22:24.788Z,2.47
2019-05-13T02:24:53.561Z,2.10
2019-05-13T02:27:20.589Z,2.07
2019-05-13T02:29:48.198Z,2.70
2019-05-13T02:32:15.478Z,1.87
2019-05-13T02:34:44.054Z,2.17
2019-05-13T02:37:12.880Z,1.97
2019-05-13T02:39:42.663Z,2.17
2019-05-13T02:42:09.132Z,2.10
2019-05-13T02:44:37.765Z,2.30
2019-05-13T02:47:05.712Z,2.17
2019-05-13T02:49:35.376Z,2.10
2019-05-13T02:52:03.186Z,2.13
2019-05-13T02:54:34.301Z,2.57
2019-05-13T02:57:03.625Z,2.10
2019-05-13T02:59:34.939Z,2.10
2019-05-13T03:02:04.587Z,2.40
2019-05-13T03:04:32.807Z,2.40
2019-05-13T03:07:02.701Z,2.30
2019-05-13T03:09:32.158Z,2.03
2019-05-13T03:11:59.136Z,2.23
2019-05-13T03:14:32.502Z,2.23
2019-05-13T03:17:06.843Z,2.00
2019-05-13T03:19:34.269Z,2.43
2019-05-13T03:22:02.972Z,2.10
2019-05-13T03:24:32.920Z,2.13
2019-05-13T03:27:02.504Z,2.13
2019-05-13T03:29:32.740Z,1.90
2019-05-13T03:31:59.339Z,2.43
2019-05-13T03:34:27.600Z,2.00
2019-05-13T03:36:57.487Z,2.10
2019-05-13T03:39:23.623Z,2.30
2019-05-13T03:41:52.817Z,2.33
2019-05-13T03:44:25.394Z,2.10
2019-05-13T03:46:53.059Z,2.10
2019-05-13T03:49:23.272Z,2.50
2019-05-13T03:51:53.427Z,1.90
2019-05-13T03:54:22.679Z,2.10
2019-05-13T03:56:52.805Z,1.93
2019-05-13T03:59:22.252Z,2.30
2019-05-13T04:01:52.198Z,2.47
2019-05-13T04:04:18.417Z,2.40
2019-05-13T04:06:45.446Z,2.10
2019-05-13T04:09:25.614Z,2.30
2019-05-13T04:11:55.319Z,2.10
2019-05-13T04:14:34.572Z,2.03
2019-05-13T04:17:04.925Z,1.90
2019-05-13T04:19:33.640Z,2.20
2019-05-13T04:22:04.757Z,2.27
2019-05-13T04:24:33.367Z,2.13
2019-05-13T04:27:02.800Z,2.60
2019-05-13T04:29:33.529Z,2.30
2019-05-13T04:32:07.059Z,2.10
2019-05-13T04:37:26.126Z,2.30
2019-05-13T04:39:56.413Z,2.40
2019-05-13T04:42:24.085Z,2.20
2019-05-13T04:44:53.207Z,1.90
2019-05-13T04:47:22.985Z,1.90
2019-05-13T04:52:44.547Z,2.00
2019-05-13T04:55:13.770Z,2.30
2019-05-13T04:57:42.549Z,2.00
2019-05-13T05:00:14.478Z,2.47
2019-05-13T05:05:32.707Z,2.07
2019-05-13T05:08:12.015Z,2.27
2019-05-13T05:10:42.953Z,1.90
2019-05-13T05:13:12.664Z,2.00
2019-05-13T05:15:41.748Z,2.20
2019-05-13T05:18:08.431Z,2.50
2019-05-13T05:20:35.379Z,2.03
2019-05-13T05:23:03.052Z,2.00
2019-05-13T05:25:38.896Z,2.00
2019-05-13T05:28:06.554Z,1.80
2019-05-13T05:30:34.624Z,1.63
2019-05-13T05:33:04.037Z,1.90
2019-05-13T05:35:32.494Z,1.83
2019-05-13T05:38:01.479Z,1.70
2019-05-13T05:40:32.286Z,1.80
2019-05-13T05:43:02.424Z,2.10
2019-05-13T05:45:33.308Z,1.80
2019-05-13T05:48:01.541Z,1.70
2019-05-13T05:50:28.505Z,2.30
2019-05-13T05:52:56.063Z,2.00
2019-05-13T05:55:24.636Z,1.93
2019-05-13T05:57:52.520Z,2.00
2019-05-13T06:00:25.989Z,2.20
2019-05-13T06:02:53.934Z,1.63
2019-05-13T06:05:21.474Z,2.03
2019-05-13T06:07:48.655Z,1.70
2019-05-13T06:10:15.728Z,1.83
2019-05-13T06:12:42.955Z,1.77
2019-05-13T06:15:12.385Z,1.70
2019-05-13T06:17:41.306Z,1.73
2019-05-13T06:22:58.445Z,1.83
2019-05-13T06:25:26.200Z,2.03
2019-05-13T06:27:53.407Z,1.60
2019-05-13T06:30:21.782Z,1.93
2019-05-13T06:32:49.344Z,2.20
2019-05-13T06:35:17.227Z,1.80
2019-05-13T06:37:46.216Z,1.80
2019-05-13T06:40:14.316Z,1.83
2019-05-13T06:42:41.808Z,1.80
2019-05-13T06:45:09.254Z,2.20
2019-05-13T06:47:41.172Z,1.77
2019-05-13T06:50:07.596Z,1.83
2019-05-13T06:52:34.607Z,1.90
2019-05-13T06:55:02.921Z,1.60
2019-05-13T06:57:32.269Z,1.90
2019-05-13T07:00:01.478Z,1.97
2019-05-13T07:02:32.107Z,2.07
2019-05-13T07:04:59.334Z,2.00
2019-05-13T07:07:26.818Z,1.93
2019-05-13T07:09:53.792Z,1.87
2019-05-13T07:12:21.921Z,1.50
2019-05-13T07:14:51.265Z,1.70
2019-05-13T07:17:21.584Z,1.90
2019-05-13T07:19:48.376Z,1.83
2019-05-13T07:22:15.535Z,1.67
2019-05-13T07:24:42.593Z,1.77
2019-05-13T07:27:11.956Z,1.70
2019-05-13T07:29:42.331Z,1.70
2019-05-13T07:32:13.457Z,1.73
2019-05-13T07:34:43.770Z,1.73
2019-05-13T07:37:15.091Z,1.80
2019-05-13T07:39:43.084Z,1.80
2019-05-13T07:42:12.355Z,1.70
2019-05-13T07:44:41.633Z,1.70
2019-05-13T07:47:11.413Z,1.73
2019-05-13T07:49:39.032Z,1.60
2019-05-13T07:52:05.843Z,1.90
2019-05-13T07:54:33.257Z,2.00
2019-05-13T07:57:02.027Z,1.63
2019-05-13T07:59:31.830Z,1.60
2019-05-13T08:01:58.298Z,1.53
2019-05-13T08:04:26.878Z,1.80
2019-05-13T08:06:53.757Z,1.60
2019-05-13T08:09:23.442Z,2.00
2019-05-13T08:12:02.276Z,1.77
2019-05-13T08:14:21.955Z,1.90
2019-05-13T08:16:51.818Z,1.97
2019-05-13T08:19:18.697Z,1.50
2019-05-13T08:21:46.302Z,1.70
2019-05-13T08:24:13.412Z,1.57
2019-05-13T08:29:32.762Z,1.87
2019-05-13T08:31:59.234Z,1.73
2019-05-13T08:34:26.590Z,1.67
2019-05-13T08:36:54.485Z,1.63
2019-05-13T08:39:21.810Z,1.67
2019-05-13T08:41:51.391Z,2.03
2019-05-13T08:44:17.978Z,1.90
2019-05-13T08:46:47.670Z,1.50
2019-05-13T08:49:14.701Z,1.70
2019-05-13T08:52:01.631Z,1.83
2019-05-13T08:54:29.032Z,1.47
2019-05-13T08:56:56.651Z,1.90
2019-05-13T08:59:24.172Z,1.67
2019-05-13T09:01:56.020Z,1.70
2019-05-13T09:04:27.083Z,1.73
2019-05-13T09:07:15.486Z,1.40
2019-05-13T09:09:45.538Z,1.80
2019-05-13T09:12:28.117Z,1.50
2019-05-13T09:14:42.076Z,1.70
2019-05-13T09:17:12.826Z,2.00
2019-05-13T09:19:41.401Z,1.93
2019-05-13T09:22:12.171Z,2.10
2019-05-13T09:24:42.558Z,1.70
2019-05-13T09:27:23.807Z,1.80
2019-05-13T09:30:02.419Z,2.00
2019-05-13T09:32:47.193Z,1.60
2019-05-13T09:35:14.438Z,1.73
2019-05-13T09:37:42.361Z,2.30
2019-05-13T09:40:11.448Z,2.50
2019-05-13T09:45:08.254Z,1.50
2019-05-13T09:47:38.511Z,2.17
2019-05-13T09:50:25.573Z,2.03
2019-05-13T09:52:42.870Z,2.20
2019-05-13T09:55:24.808Z,1.90
2019-05-13T09:57:41.525Z,2.30
2019-05-13T10:00:12.415Z,2.50
2019-05-13T10:02:42.334Z,2.43
2019-05-13T10:05:11.645Z,2.37
2019-05-13T10:07:42.134Z,2.10
2019-05-13T10:13:09.339Z,2.20
2019-05-13T10:15:27.503Z,2.00
2019-05-13T10:17:54.702Z,2.07
2019-05-13T10:20:22.455Z,2.57
2019-05-13T10:22:52.530Z,2.10
2019-05-13T10:25:23.626Z,2.03
2019-05-13T10:27:52.067Z,2.07
2019-05-13T10:30:22.661Z,1.57
2019-05-13T10:33:02.912Z,2.10
2019-05-13T10:35:31.693Z,2.00
2019-05-13T10:37:59.618Z,2.20
2019-05-13T10:40:26.747Z,2.20
2019-05-13T10:43:03.366Z,1.93
2019-05-13T10:45:42.467Z,2.13
2019-05-13T10:48:21.558Z,2.20
2019-05-13T10:50:49.201Z,2.10
2019-05-13T10:53:16.628Z,1.97
2019-05-13T10:55:45.710Z,2.37
2019-05-13T10:58:15.502Z,2.47
2019-05-13T11:00:47.140Z,2.13
2019-05-13T11:03:22.948Z,2.20
2019-05-13T11:05:52.722Z,2.10
2019-05-13T11:08:22.157Z,2.00
2019-05-13T11:10:52.974Z,2.13
2019-05-13T11:13:19.309Z,1.90
2019-05-13T11:15:46.188Z,1.93
2019-05-13T11:18:19.279Z,2.07
2019-05-13T11:20:46.117Z,2.40
2019-05-13T11:23:14.208Z,2.03
2019-05-13T11:25:43.658Z,1.87
2019-05-13T11:28:12.290Z,1.80
2019-05-13T11:30:42.402Z,1.90
2019-05-13T11:33:11.202Z,2.03
2019-05-13T11:35:38.198Z,1.87
2019-05-13T11:38:06.064Z,1.83
2019-05-13T11:43:28.056Z,2.17
2019-05-13T11:45:54.071Z,1.80
2019-05-13T11:48:23.496Z,1.70
2019-05-13T11:50:54.087Z,1.83
2019-05-13T11:53:38.354Z,2.00
2019-05-13T11:55:52.789Z,1.70
2019-05-13T11:58:21.324Z,2.20
2019-05-13T12:00:52.740Z,1.90
2019-05-13T12:03:18.479Z,1.70
2019-05-13T12:05:46.789Z,1.70
2019-05-13T12:08:14.234Z,1.63
2019-05-13T12:10:44.128Z,1.63
2019-05-13T12:13:12.656Z,1.80
2019-05-13T12:15:49.380Z,1.97
2019-05-13T12:18:14.139Z,1.67
2019-05-13T12:20:42.743Z,2.40
2019-05-13T12:23:13.023Z,1.83
2019-05-13T12:25:43.721Z,1.40
2019-05-13T12:28:18.859Z,1.47
2019-05-13T12:31:08.230Z,1.80
2019-05-13T12:33:53.463Z,1.63
2019-05-13T12:36:23.657Z,1.97
2019-05-13T12:38:52.917Z,2.20
2019-05-13T12:41:19.224Z,1.77
2019-05-13T12:43:47.326Z,1.67
2019-05-13T12:46:48.594Z,2.00
2019-05-13T12:49:14.682Z,1.97
2019-05-13T12:54:32.689Z,1.70
2019-05-13T12:57:03.620Z,1.73
2019-05-13T12:59:32.122Z,1.70
2019-05-13T13:02:21.840Z,2.27
2019-05-13T13:05:10.944Z,2.05
2019-05-13T13:07:23.448Z,1.80
2019-05-13T13:09:53.638Z,1.90
2019-05-13T13:12:32.780Z,1.70
2019-05-13T13:14:54.927Z,1.80
2019-05-13T13:17:24.352Z,1.97
2019-05-13T13:19:54.750Z,1.87
2019-05-13T13:22:25.304Z,1.53
2019-05-13T13:24:56.975Z,1.70
2019-05-13T13:27:47.119Z,1.80
2019-05-13T13:30:02.745Z,1.70
2019-05-13T13:32:24.629Z,1.60
2019-05-13T13:34:56.638Z,1.60
2019-05-13T13:37:24.961Z,1.97
2019-05-13T13:39:54.985Z,1.53
2019-05-13T13:42:21.033Z,1.93
2019-05-13T13:44:53.449Z,1.90
2019-05-13T13:47:18.359Z,1.60
2019-05-13T13:49:45.638Z,1.90
2019-05-13T13:55:08.079Z,1.90
2019-05-13T13:57:32.517Z,1.50
2019-05-13T14:02:29.357Z,1.80
2019-05-13T14:04:58.112Z,2.00
2019-05-13T14:07:02.817Z,2.00
2019-05-13T14:07:38.926Z,1.63
2019-05-13T14:10:07.065Z,1.60
2019-05-13T14:12:35.690Z,1.50
2019-05-13T14:15:02.813Z,1.50
2019-05-13T14:17:31.239Z,1.50
2019-05-13T14:19:58.518Z,1.70
2019-05-13T14:22:26.321Z,1.97
2019-05-13T14:24:53.360Z,1.60
2019-05-13T14:27:22.441Z,1.40
2019-05-13T14:29:52.478Z,1.53
2019-05-13T14:32:18.551Z,1.60
2019-05-13T14:34:46.549Z,1.42
2019-05-13T14:37:14.253Z,1.40
2019-05-13T14:42:32.330Z,1.20
2019-05-13T14:45:01.976Z,1.70
2019-05-13T14:47:28.717Z,1.43
2019-05-13T14:49:55.843Z,1.17
2019-05-13T14:52:23.566Z,1.17
2019-05-13T14:54:51.437Z,1.72
2019-05-13T14:57:18.727Z,1.30
2019-05-13T14:59:45.756Z,1.40
2019-05-13T15:02:13.022Z,1.50
2019-05-13T15:04:42.507Z,1.40
2019-05-13T15:07:12.156Z,1.40
2019-05-13T15:09:42.062Z,1.57
2019-05-13T15:12:08.944Z,1.63
2019-05-13T15:14:35.882Z,1.40
2019-05-13T15:17:07.385Z,1.60
2019-05-13T15:19:31.999Z,1.73
2019-05-13T15:21:59.769Z,1.20
2019-05-13T15:24:26.895Z,1.90
2019-05-13T15:26:54.091Z,1.80
2019-05-13T15:29:22.380Z,1.33
2019-05-13T15:31:51.490Z,1.30
2019-05-13T15:34:19.020Z,1.47
2019-05-13T15:36:45.986Z,1.50
2019-05-13T15:39:14.043Z,1.60
2019-05-13T15:41:41.891Z,1.73
2019-05-13T15:44:11.484Z,1.33
2019-05-13T15:46:38.498Z,1.43
2019-05-13T15:49:05.670Z,1.90
2019-05-13T15:51:32.516Z,1.70
2019-05-13T15:54:02.196Z,1.70
2019-05-13T15:56:27.897Z,1.55
2019-05-13T15:58:54.875Z,1.75
2019-05-13T16:01:22.977Z,1.70
2019-05-13T16:03:52.412Z,1.67
2019-05-13T16:06:20.243Z,1.70
2019-05-13T16:08:47.596Z,1.75
2019-05-13T16:11:14.748Z,1.60
2019-05-13T16:13:41.995Z,1.70
2019-05-13T16:16:08.821Z,1.70
2019-05-13T16:18:36.307Z,2.30
2019-05-13T16:21:04.249Z,2.80
2019-05-13T16:23:33.484Z,2.15
2019-05-13T16:26:01.845Z,2.40
2019-05-13T16:28:29.137Z,2.10
2019-05-13T16:30:58.337Z,2.47
2019-05-13T16:33:25.955Z,2.33
2019-05-13T16:38:43.457Z,2.22
2019-05-13T16:44:02.660Z,2.20
2019-05-13T16:46:31.553Z,2.30
2019-05-13T16:49:01.262Z,2.30
2019-05-13T16:51:31.611Z,2.00
2019-05-13T16:53:59.854Z,2.50
2019-05-13T16:56:30.970Z,2.07
2019-05-13T16:58:56.705Z,2.60
2019-05-13T17:01:23.948Z,2.33
2019-05-13T17:03:51.376Z,2.30
2019-05-13T17:06:18.645Z,2.20
2019-05-13T17:08:45.605Z,2.10
2019-05-13T17:11:12.667Z,2.40
2019-05-13T17:13:42.078Z,2.20
2019-05-13T17:16:08.744Z,2.13
2019-05-13T17:21:25.749Z,2.63
2019-05-13T17:23:52.683Z,2.27
2019-05-13T17:26:22.020Z,2.07
2019-05-13T17:28:51.782Z,1.93
2019-05-13T17:31:18.844Z,2.10
2019-05-13T17:33:46.735Z,2.23
2019-05-13T17:36:13.803Z,2.30
2019-05-13T17:38:41.620Z,2.20
2019-05-13T17:41:12.046Z,2.20
2019-05-13T17:43:45.895Z,2.20
2019-05-13T17:46:14.470Z,2.20
2019-05-13T17:51:32.296Z,2.13
2019-05-13T17:54:01.442Z,2.30
2019-05-13T17:56:28.792Z,2.53
2019-05-13T17:58:56.423Z,2.27
2019-05-13T18:01:23.982Z,2.20
2019-05-13T18:03:51.855Z,2.40
2019-05-13T18:06:22.122Z,2.40
2019-05-13T18:08:51.878Z,2.10
2019-05-13T18:11:19.187Z,1.93
2019-05-13T18:13:47.562Z,2.10
2019-05-13T18:16:14.717Z,1.93
2019-05-13T18:18:47.005Z,2.10
2019-05-13T18:21:11.942Z,1.57
2019-05-13T18:23:41.291Z,1.80
2019-05-13T18:26:07.741Z,2.20
2019-05-13T18:28:36.208Z,1.90
2019-05-13T18:31:03.605Z,1.57
2019-05-13T18:33:32.139Z,1.43
2019-05-13T18:36:01.741Z,2.00
2019-05-13T18:38:32.609Z,1.37
2019-05-13T18:41:02.061Z,1.60
2019-05-13T18:43:32.471Z,1.60
2019-05-13T18:46:02.034Z,1.97
2019-05-13T18:48:57.396Z,1.70
2019-05-13T18:51:08.931Z,1.40
2019-05-13T18:53:37.608Z,1.40
2019-05-13T18:56:04.845Z,1.97
2019-05-13T19:01:23.443Z,1.67
2019-05-13T19:03:50.802Z,1.53
2019-05-13T19:06:18.180Z,1.60
2019-05-13T19:08:46.162Z,1.47
2019-05-13T19:11:14.563Z,1.80
2019-05-13T19:13:42.958Z,1.47
2019-05-13T19:16:11.853Z,1.50
2019-05-13T19:18:38.902Z,1.50
2019-05-13T19:21:05.539Z,1.70
2019-05-13T19:23:34.380Z,1.40
2019-05-13T19:26:02.088Z,1.27
2019-05-13T19:28:31.523Z,1.40
2019-05-13T19:30:57.995Z,1.57
2019-05-13T19:33:25.258Z,1.30
2019-05-13T19:35:52.387Z,1.40
2019-05-13T19:38:24.102Z,1.37
2019-05-13T19:40:51.368Z,1.43
2019-05-13T19:43:21.685Z,1.57
2019-05-13T19:45:51.935Z,1.60
2019-05-13T19:48:21.753Z,1.40
2019-05-13T19:50:51.957Z,1.40
2019-05-13T19:53:18.935Z,1.50
2019-05-13T19:55:46.073Z,1.47
2019-05-13T19:58:13.028Z,1.80
2019-05-13T20:00:42.122Z,1.50
2019-05-13T20:03:11.532Z,1.60
2019-05-13T20:05:38.136Z,1.60
2019-05-13T20:08:05.456Z,1.60
2019-05-13T20:10:42.957Z,1.33
2019-05-13T20:13:11.227Z,1.57
2019-05-13T20:15:38.323Z,1.47
2019-05-13T20:18:05.065Z,1.40
2019-05-13T20:20:31.864Z,1.50
2019-05-13T20:23:01.767Z,1.30
2019-05-13T20:25:31.261Z,1.30
2019-05-13T20:27:59.268Z,1.43
2019-05-13T20:33:17.067Z,1.70
2019-05-13T20:35:43.948Z,1.30
2019-05-13T20:38:11.741Z,1.50
2019-05-13T20:40:41.198Z,1.57
2019-05-13T20:43:11.838Z,1.50
2019-05-13T20:45:46.883Z,1.47
2019-05-13T20:48:15.557Z,1.40
2019-05-13T20:50:43.492Z,1.50
2019-05-13T20:53:12.526Z,1.30
2019-05-13T20:55:44.373Z,1.27
2019-05-13T20:58:14.085Z,1.40
2019-05-13T21:00:42.172Z,1.80
2019-05-13T21:03:11.567Z,1.43
2019-05-13T21:05:41.366Z,1.40
2019-05-13T21:08:11.895Z,1.73
2019-05-13T21:10:42.174Z,1.70
2019-05-13T21:13:09.278Z,1.40
2019-05-13T21:15:36.770Z,1.70
2019-05-13T21:18:08.214Z,1.77
2019-05-13T21:20:35.348Z,1.40
2019-05-13T21:23:02.884Z,1.70
2019-05-13T21:25:31.083Z,1.40
2019-05-13T21:28:02.412Z,1.60
2019-05-13T21:30:29.286Z,1.40
2019-05-13T21:32:56.734Z,1.30
2019-05-13T21:35:27.462Z,1.80
2019-05-13T21:37:58.506Z,1.43
2019-05-13T21:40:26.256Z,1.37
2019-05-13T21:42:54.610Z,1.30
2019-05-13T21:45:24.092Z,1.17
2019-05-13T21:47:55.358Z,1.60
2019-05-13T21:50:34.214Z,1.83
2019-05-13T21:52:54.829Z,1.70
2019-05-13T21:55:23.186Z,1.90
2019-05-13T21:57:52.861Z,1.40
2019-05-13T22:00:23.446Z,1.47
2019-05-13T22:02:51.580Z,1.40
2019-05-13T22:05:18.785Z,1.40
2019-05-13T22:07:48.303Z,1.70
2019-05-13T22:10:16.393Z,1.50
2019-05-13T22:12:44.714Z,1.30
2019-05-13T22:15:12.953Z,1.70
2019-05-13T22:17:42.259Z,1.67
2019-05-13T22:20:12.054Z,1.40
2019-05-13T22:22:41.574Z,1.83
2019-05-13T22:25:08.521Z,1.90
2019-05-13T22:27:36.350Z,1.60
2019-05-13T22:30:03.219Z,1.70
2019-05-13T22:32:30.143Z,1.53
2019-05-13T22:34:57.251Z,1.40
2019-05-13T22:37:35.005Z,1.73
2019-05-13T22:40:06.713Z,1.60
2019-05-13T22:42:34.447Z,1.60
2019-05-13T22:45:11.477Z,1.63
2019-05-13T22:47:42.965Z,1.50
2019-05-13T22:50:11.579Z,1.40
2019-05-13T22:52:38.810Z,2.00
2019-05-13T22:55:06.201Z,1.40
2019-05-13T22:57:33.852Z,1.53
2019-05-13T23:00:03.488Z,1.50
2019-05-13T23:02:33.517Z,1.50
2019-05-13T23:05:01.748Z,1.27
2019-05-13T23:07:31.550Z,1.30
2019-05-13T23:09:59.572Z,1.33
2019-05-13T23:12:26.775Z,1.27
2019-05-13T23:14:53.916Z,1.27
2019-05-13T23:17:21.663Z,1.23
2019-05-13T23:19:51.963Z,1.20
2019-05-13T23:22:18.630Z,1.30
2019-05-13T23:24:45.660Z,1.10
2019-05-13T23:27:14.758Z,1.00
2019-05-13T23:29:41.677Z,1.10
2019-05-13T23:32:21.269Z,1.30
2019-05-13T23:34:51.279Z,0.93
2019-05-13T23:37:21.833Z,1.40
2019-05-13T23:39:51.835Z,1.40
2019-05-13T23:42:21.114Z,1.13
2019-05-13T23:44:48.438Z,1.07
2019-05-13T23:47:16.122Z,1.20
2019-05-13T23:49:43.049Z,1.47
2019-05-13T23:52:11.763Z,1.50
2019-05-13T23:54:38.939Z,1.10
2019-05-13T23:57:06.215Z,1.17
2019-05-13T23:59:33.495Z,1.27
